Airfield :
LOGIN :

Register | Disclaimer

   EN    FR    IT 

 










Legend :    VFR   Marginal VFR   IFR   Intensive IFR   Very Intensive IFR
Visi :
Ceiling :
>= 8 km
>= 3000ft
5 to 8 km
1000 to 3000 ft
1500m to 5 km
500 to 1000 ft
800 to 1500m
200 to 500 ft
< 800m
< 200 ft
Symbols :   Thunderstorms  Fog  Heavy snow  Heavy precipitations  Wind > 20 kt
SIGMETs :     Misc.  Thunderstorms  Icing  Turbulence  Mountain Waves  Volcanic Ashes






- Airport Elevation : 538 ft
- IATA code : TNF


LFPN - Toussus Le Noble

CURRENT METAR :
  • 270830Z AUTO 19019KT 3400 -RA BR OVC006/// 05/04 Q0993 TEMPO 20015G30KT RA

EXPIRED METARs :
  • 270800Z AUTO 18018KT 4100 -RA BR OVC006/// 04/03 Q0995 TEMPO 20015G30KT RA
  • 270730Z AUTO 17018KT 3100 RA BR OVC006/// 04/03 Q0995 TEMPO 20015G30KT
  • 270700Z AUTO 16019KT 7000 RA OVC008/// 03/02 Q0996 TEMPO 20015G30KT 3000 RA
  • 270630Z AUTO 17016KT 7000 RA OVC009/// 04/02 Q0998 TEMPO 20015G30KT 3000 RA
  • 270600Z AUTO 17016G28KT 7000 RA BKN009/// OVC013/// 04/02 Q1000 TEMPO 1200 RASN

TAF TAF LFPN
Valid from the 27 at 06:00 until the 27 at 15:00 UTC


270500Z 2706/2715 18015KT 9999 BKN016
TEMPO 2706/2711 20015G30KT 3000 RA BKN008
PROB30
TEMPO 2706/2708 1200 RASN
BECMG 2710/2711 27015KT BKN020
TEMPO 2711/2715 26015G35KT
PROB40
TEMPO 2712/2714 30025G45KT
ATIS : +33 1 39 56 54 70



MET'MAP, your aeronautical weather chart ! - Copyright ORBIFLY December 2007 - Disclaimer

ORBIFLY MET'MAP TEAM :

Programming & Development : Alexandra Zaïnal
Concept & original design : Baudouin d'Aumeries
Assistance for programming : Marc-Olivier Méhu
Technical & hardware support : Manuel Goepfert

Contact : metmap@orbifly.com




SOURCES & CREDITS :

   NOAA